createdAt,value
2024-02-02T00:00:41.033Z,55.33
2024-02-02T00:01:40.910Z,55.33
2024-02-02T00:02:40.940Z,55.33
2024-02-02T00:03:40.994Z,55.33
2024-02-02T00:04:40.925Z,55.33
2024-02-02T00:05:40.889Z,55.33
2024-02-02T00:06:41.062Z,55.33
2024-02-02T00:07:40.843Z,55.33
2024-02-02T00:08:40.841Z,55.33
2024-02-02T00:09:40.903Z,55.33
2024-02-02T00:10:40.816Z,55.33
2024-02-02T00:11:40.797Z,55.33
2024-02-02T00:12:40.787Z,55.33
2024-02-02T00:13:40.772Z,55.33
2024-02-02T00:14:40.851Z,55.33
2024-02-02T00:15:40.755Z,55.43
2024-02-02T00:16:40.744Z,55.33
2024-02-02T00:17:40.763Z,55.43
2024-02-02T00:18:40.847Z,55.43
2024-02-02T00:19:40.813Z,55.33
2024-02-02T00:20:40.692Z,55.33
2024-02-02T00:21:40.686Z,55.33
2024-02-02T00:22:40.684Z,55.33
2024-02-02T00:23:40.672Z,55.33
2024-02-02T00:24:40.693Z,55.43
2024-02-02T00:25:40.716Z,55.43
2024-02-02T00:26:40.634Z,55.33
2024-02-02T00:27:40.619Z,55.43
2024-02-02T00:28:40.621Z,55.33
2024-02-02T00:29:40.597Z,55.43
2024-02-02T00:30:40.625Z,55.43
2024-02-02T00:31:40.640Z,55.33
2024-02-02T00:32:40.592Z,55.43
2024-02-02T00:33:40.744Z,55.43
2024-02-02T00:34:40.911Z,55.43
2024-02-02T00:35:40.531Z,55.43
2024-02-02T00:36:40.522Z,55.43
2024-02-02T00:37:40.551Z,55.43
2024-02-02T00:38:40.507Z,55.43
2024-02-02T00:39:40.497Z,55.43
2024-02-02T00:40:40.485Z,55.43
2024-02-02T00:41:40.500Z,55.43
2024-02-02T00:42:40.574Z,55.43
2024-02-02T00:43:40.495Z,55.43
2024-02-02T00:44:40.434Z,55.43
2024-02-02T00:45:40.421Z,55.43
2024-02-02T00:46:40.413Z,55.43
2024-02-02T00:47:40.421Z,55.43
2024-02-02T00:48:40.544Z,55.43
2024-02-02T00:49:40.518Z,55.43
2024-02-02T00:50:40.367Z,55.43
2024-02-02T00:51:40.410Z,55.43
2024-02-02T00:52:40.348Z,55.43
2024-02-02T00:53:40.340Z,55.43
2024-02-02T00:54:40.360Z,55.43
2024-02-02T00:55:40.373Z,55.43
2024-02-02T00:56:40.358Z,55.43
2024-02-02T00:57:40.442Z,55.43
2024-02-02T00:58:40.283Z,55.43
2024-02-02T00:59:40.269Z,55.43
2024-02-02T01:00:40.434Z,55.43
2024-02-02T01:01:40.246Z,55.43
2024-02-02T01:02:40.242Z,55.43
2024-02-02T01:03:40.363Z,55.43
2024-02-02T01:04:40.278Z,55.43
2024-02-02T01:05:40.229Z,55.43
2024-02-02T01:06:40.385Z,55.43
2024-02-02T01:07:40.184Z,55.43
2024-02-02T01:08:40.162Z,55.43
2024-02-02T01:09:40.181Z,55.43
2024-02-02T01:10:40.133Z,55.43
2024-02-02T01:11:40.118Z,55.46
2024-02-02T01:12:40.153Z,55.43
2024-02-02T01:13:40.183Z,55.43
2024-02-02T01:14:40.082Z,55.43
2024-02-02T01:15:40.138Z,55.43
2024-02-02T01:16:40.067Z,55.43
2024-02-02T01:17:40.085Z,55.43
2024-02-02T01:18:40.198Z,55.46
2024-02-02T01:19:40.045Z,55.43
2024-02-02T01:20:40.013Z,55.43
2024-02-02T01:21:40.023Z,55.46
2024-02-02T01:22:39.993Z,55.43
2024-02-02T01:23:39.981Z,55.43
2024-02-02T01:24:40.046Z,55.46
2024-02-02T01:25:39.953Z,55.46
2024-02-02T01:26:39.946Z,55.46
2024-02-02T01:27:39.929Z,55.46
2024-02-02T01:28:39.926Z,55.46
2024-02-02T01:29:39.938Z,55.46
2024-02-02T01:30:39.921Z,55.43
2024-02-02T01:31:39.888Z,55.46
2024-02-02T01:32:39.936Z,55.46
2024-02-02T01:33:40.019Z,55.46
2024-02-02T01:34:39.992Z,55.56
2024-02-02T01:35:39.842Z,55.46
2024-02-02T01:36:39.825Z,55.46
2024-02-02T01:37:39.815Z,55.46
2024-02-02T01:38:39.802Z,55.46
2024-02-02T01:39:39.833Z,55.46
2024-02-02T01:40:39.787Z,55.56
2024-02-02T01:41:39.770Z,55.56
2024-02-02T01:42:39.753Z,55.56
2024-02-02T01:43:39.744Z,55.56
2024-02-02T01:44:39.772Z,55.56
2024-02-02T01:45:39.764Z,55.56
2024-02-02T01:46:39.708Z,55.56
2024-02-02T01:47:39.814Z,55.56
2024-02-02T01:48:39.847Z,55.56
2024-02-02T01:49:39.833Z,55.56
2024-02-02T01:50:39.663Z,55.56
2024-02-02T01:51:39.654Z,55.56
2024-02-02T01:52:39.669Z,55.56
2024-02-02T01:53:39.630Z,55.56
2024-02-02T01:54:39.617Z,55.56
2024-02-02T01:55:39.621Z,55.56
2024-02-02T01:56:39.596Z,55.56
2024-02-02T01:57:39.620Z,55.56
2024-02-02T01:58:39.573Z,55.56
2024-02-02T01:59:39.557Z,55.56
2024-02-02T02:00:39.650Z,55.56
2024-02-02T02:01:39.570Z,55.56
2024-02-02T02:02:39.556Z,55.56
2024-02-02T02:03:39.534Z,55.56
2024-02-02T02:04:39.545Z,55.56
2024-02-02T02:05:39.510Z,55.56
2024-02-02T02:06:39.514Z,55.56
2024-02-02T02:07:39.493Z,55.56
2024-02-02T02:08:39.466Z,55.56
2024-02-02T02:09:39.461Z,55.56
2024-02-02T02:10:39.436Z,55.56
2024-02-02T02:11:39.423Z,55.56
2024-02-02T02:12:39.523Z,55.56
2024-02-02T02:13:39.415Z,55.56
2024-02-02T02:14:39.398Z,55.56
2024-02-02T02:15:39.470Z,55.56
2024-02-02T02:16:39.377Z,55.56
2024-02-02T02:17:39.475Z,55.56
2024-02-02T02:18:44.137Z,55.56
2024-02-02T02:19:40.457Z,55.56
2024-02-02T02:20:39.329Z,55.56
2024-02-02T02:21:39.365Z,55.56
2024-02-02T02:22:39.335Z,55.56
2024-02-02T02:23:39.335Z,55.56
2024-02-02T02:24:39.299Z,55.56
2024-02-02T02:25:39.275Z,55.56
2024-02-02T02:26:39.261Z,55.56
2024-02-02T02:27:39.298Z,55.56
2024-02-02T02:28:39.262Z,55.56
2024-02-02T02:29:39.253Z,55.56
2024-02-02T02:30:39.266Z,55.56
2024-02-02T02:31:39.219Z,55.56
2024-02-02T02:32:39.274Z,55.56
2024-02-02T02:33:39.384Z,55.56
2024-02-02T02:34:39.237Z,55.56
2024-02-02T02:35:39.184Z,55.56
2024-02-02T02:36:39.147Z,55.56
2024-02-02T02:37:39.135Z,55.56
2024-02-02T02:38:39.152Z,55.56
2024-02-02T02:39:39.140Z,55.56
2024-02-02T02:40:39.102Z,55.56
2024-02-02T02:41:39.121Z,55.56
2024-02-02T02:42:39.165Z,55.56
2024-02-02T02:43:39.072Z,55.56
2024-02-02T02:44:39.056Z,55.56
2024-02-02T02:45:39.103Z,55.56
2024-02-02T02:46:39.065Z,55.56
2024-02-02T02:47:39.093Z,55.56
2024-02-02T02:48:39.165Z,55.56
2024-02-02T02:49:39.161Z,55.56
2024-02-02T02:50:39.033Z,55.56
2024-02-02T02:51:39.014Z,55.56
2024-02-02T02:52:39.001Z,55.56
2024-02-02T02:53:38.959Z,55.46
2024-02-02T02:54:38.974Z,55.56
2024-02-02T02:55:38.938Z,55.56
2024-02-02T02:56:38.926Z,55.56
2024-02-02T02:57:38.996Z,55.46
2024-02-02T02:58:38.907Z,55.56
2024-02-02T02:59:38.900Z,55.46
2024-02-02T03:00:38.921Z,55.56
2024-02-02T03:01:38.879Z,55.56
2024-02-02T03:02:38.888Z,55.56
2024-02-02T03:03:38.965Z,55.56
2024-02-02T03:04:38.862Z,55.56
2024-02-02T03:05:38.880Z,55.56
2024-02-02T03:06:38.909Z,55.46
2024-02-02T03:07:38.830Z,55.46
2024-02-02T03:08:38.796Z,55.56
2024-02-02T03:09:38.783Z,55.46
2024-02-02T03:10:38.770Z,55.46
2024-02-02T03:11:38.804Z,55.56
2024-02-02T03:12:38.796Z,55.46
2024-02-02T03:13:38.770Z,55.56
2024-02-02T03:14:38.730Z,55.56
2024-02-02T03:15:38.768Z,55.56
2024-02-02T03:16:38.732Z,55.56
2024-02-02T03:17:38.735Z,55.46
2024-02-02T03:18:39.728Z,55.56
2024-02-02T03:19:38.827Z,55.46
2024-02-02T03:20:38.694Z,55.46
2024-02-02T03:21:38.707Z,55.46
2024-02-02T03:22:38.637Z,55.46
2024-02-02T03:23:38.667Z,55.46
2024-02-02T03:24:38.665Z,55.46
2024-02-02T03:25:38.608Z,55.46
2024-02-02T03:26:38.599Z,55.46
2024-02-02T03:27:38.635Z,55.46
2024-02-02T03:28:38.591Z,55.46
2024-02-02T03:29:38.582Z,55.56
2024-02-02T03:30:38.625Z,55.56
2024-02-02T03:31:38.564Z,55.56
2024-02-02T03:32:38.536Z,55.46
2024-02-02T03:33:38.630Z,55.56
2024-02-02T03:34:38.652Z,55.56
2024-02-02T03:35:38.488Z,55.56
2024-02-02T03:36:38.539Z,55.46
2024-02-02T03:37:38.489Z,55.56
2024-02-02T03:38:38.461Z,55.46
2024-02-02T03:39:38.509Z,55.56
2024-02-02T03:40:38.477Z,55.46
2024-02-02T03:41:38.452Z,55.46
2024-02-02T03:42:38.426Z,55.46
2024-02-02T03:43:38.397Z,55.46
2024-02-02T03:44:38.426Z,55.46
2024-02-02T03:45:38.445Z,55.46
2024-02-02T03:46:38.380Z,55.46
2024-02-02T03:47:38.406Z,55.46
2024-02-02T03:48:38.509Z,55.46
2024-02-02T03:49:38.388Z,55.46
2024-02-02T03:50:38.337Z,55.46
2024-02-02T03:51:38.350Z,55.46
2024-02-02T03:52:38.326Z,55.46
2024-02-02T03:53:38.323Z,55.46
2024-02-02T03:54:38.324Z,55.46
2024-02-02T03:55:38.274Z,55.46
2024-02-02T03:56:38.287Z,55.46
2024-02-02T03:57:38.324Z,55.46
2024-02-02T03:58:38.232Z,55.46
2024-02-02T03:59:38.220Z,55.46
2024-02-02T04:00:38.316Z,55.46
2024-02-02T04:01:38.244Z,55.46
2024-02-02T04:02:38.251Z,55.46
2024-02-02T04:03:38.259Z,55.46
2024-02-02T04:04:38.164Z,55.46
2024-02-02T04:05:38.230Z,55.46
2024-02-02T04:06:38.227Z,55.46
2024-02-02T04:07:38.142Z,55.46
2024-02-02T04:08:38.615Z,55.46
2024-02-02T04:09:38.226Z,55.46
2024-02-02T04:10:38.118Z,55.46
2024-02-02T04:11:38.139Z,55.46
2024-02-02T04:12:38.111Z,55.46
2024-02-02T04:13:38.088Z,55.46
2024-02-02T04:14:38.065Z,55.46
2024-02-02T04:15:38.181Z,55.46
2024-02-02T04:16:38.071Z,55.46
2024-02-02T04:17:38.092Z,55.46
2024-02-02T04:18:38.200Z,55.46
2024-02-02T04:19:38.101Z,55.46
2024-02-02T04:20:37.988Z,55.46
2024-02-02T04:21:38.023Z,55.46
2024-02-02T04:22:37.990Z,55.46
2024-02-02T04:23:37.957Z,55.46
2024-02-02T04:24:38.045Z,55.46
2024-02-02T04:25:37.963Z,55.46
2024-02-02T04:26:37.939Z,55.46
2024-02-02T04:27:38.030Z,55.46
2024-02-02T04:28:37.905Z,55.46
2024-02-02T04:29:37.888Z,55.46
2024-02-02T04:30:38.028Z,55.46
2024-02-02T04:31:37.898Z,55.46
2024-02-02T04:32:37.968Z,55.46
2024-02-02T04:33:37.974Z,55.46
2024-02-02T04:34:37.971Z,55.46
2024-02-02T04:35:37.870Z,55.46
2024-02-02T04:36:37.858Z,55.46
2024-02-02T04:37:37.838Z,55.46
2024-02-02T04:38:37.780Z,55.46
2024-02-02T04:39:37.833Z,55.46
2024-02-02T04:40:37.792Z,55.46
2024-02-02T04:41:37.789Z,55.46
2024-02-02T04:42:37.780Z,55.46
2024-02-02T04:43:37.782Z,55.46
2024-02-02T04:44:37.713Z,55.46
2024-02-02T04:45:37.778Z,55.46
2024-02-02T04:46:37.697Z,55.46
2024-02-02T04:47:37.704Z,55.46
2024-02-02T04:48:37.830Z,55.46
2024-02-02T04:49:37.708Z,55.46
2024-02-02T04:50:37.680Z,55.46
2024-02-02T04:51:37.799Z,55.46
2024-02-02T04:52:37.643Z,55.46
2024-02-02T04:53:37.642Z,55.46
2024-02-02T04:54:37.680Z,55.46
2024-02-02T04:55:37.627Z,55.46
2024-02-02T04:56:37.574Z,55.46
2024-02-02T04:57:37.665Z,55.46
2024-02-02T04:58:37.584Z,55.46
2024-02-02T04:59:37.555Z,55.46
2024-02-02T05:00:37.634Z,55.46
2024-02-02T05:01:37.525Z,55.46
2024-02-02T05:02:37.526Z,55.46
2024-02-02T05:03:37.621Z,55.46
2024-02-02T05:04:37.645Z,55.46
2024-02-02T05:05:37.479Z,55.46
2024-02-02T05:06:37.543Z,55.46
2024-02-02T05:07:37.497Z,55.46
2024-02-02T05:08:37.448Z,55.46
2024-02-02T05:09:37.493Z,55.46
2024-02-02T05:10:37.449Z,55.46
2024-02-02T05:11:37.453Z,55.46
2024-02-02T05:12:37.591Z,55.46
2024-02-02T05:13:37.416Z,55.46
2024-02-02T05:14:37.417Z,55.46
2024-02-02T05:15:37.503Z,55.46
2024-02-02T05:16:37.388Z,55.46
2024-02-02T05:17:37.480Z,55.46
2024-02-02T05:18:37.433Z,55.46
2024-02-02T05:19:37.352Z,55.46
2024-02-02T05:20:37.372Z,55.46
2024-02-02T05:21:37.358Z,55.46
2024-02-02T05:22:37.300Z,55.46
2024-02-02T05:23:43.157Z,55.46
2024-02-02T05:24:45.086Z,55.46
2024-02-02T05:25:38.385Z,55.46
2024-02-02T05:26:37.258Z,55.46
2024-02-02T05:27:37.309Z,55.46
2024-02-02T05:28:37.256Z,55.46
2024-02-02T05:29:37.238Z,55.46
2024-02-02T05:30:37.411Z,55.46
2024-02-02T05:31:37.188Z,55.56
2024-02-02T05:32:37.271Z,55.46
2024-02-02T05:33:37.296Z,55.46
2024-02-02T05:34:37.306Z,55.46
2024-02-02T05:35:37.168Z,55.46
2024-02-02T05:36:37.214Z,55.46
2024-02-02T05:37:37.145Z,55.56
2024-02-02T05:38:37.163Z,55.46
2024-02-02T05:39:37.268Z,55.46
2024-02-02T05:40:37.196Z,55.46
2024-02-02T05:41:37.108Z,55.56
2024-02-02T05:42:37.173Z,55.56
2024-02-02T05:43:37.132Z,55.56
2024-02-02T05:44:37.040Z,55.56
2024-02-02T05:45:37.259Z,55.56
2024-02-02T05:46:38.153Z,55.46
2024-02-02T05:47:37.065Z,55.46
2024-02-02T05:48:37.241Z,55.56
2024-02-02T05:49:37.039Z,55.46
2024-02-02T05:50:37.035Z,55.46
2024-02-02T05:51:37.065Z,55.46
2024-02-02T05:52:36.975Z,55.56
2024-02-02T05:53:36.964Z,55.56
2024-02-02T05:54:36.972Z,55.56
2024-02-02T05:55:36.936Z,55.46
2024-02-02T05:56:36.934Z,55.46
2024-02-02T05:57:36.908Z,55.56
2024-02-02T05:58:36.882Z,55.46
2024-02-02T05:59:36.876Z,55.46
2024-02-02T06:00:36.924Z,55.46
2024-02-02T06:01:36.972Z,55.46
2024-02-02T06:02:36.851Z,55.46
2024-02-02T06:03:37.009Z,55.56
2024-02-02T06:04:36.843Z,55.46
2024-02-02T06:05:36.813Z,55.46
2024-02-02T06:06:36.923Z,55.46
2024-02-02T06:07:36.813Z,55.46
2024-02-02T06:08:36.810Z,55.46
2024-02-02T06:09:36.796Z,55.46
2024-02-02T06:10:36.765Z,55.46
2024-02-02T06:11:36.740Z,55.46
2024-02-02T06:12:36.818Z,55.46
2024-02-02T06:13:36.728Z,55.46
2024-02-02T06:14:36.738Z,55.46
2024-02-02T06:15:36.798Z,55.46
2024-02-02T06:16:36.691Z,55.46
2024-02-02T06:17:36.724Z,55.46
2024-02-02T06:18:36.738Z,55.46
2024-02-02T06:19:36.865Z,55.46
2024-02-02T06:20:36.642Z,55.46
2024-02-02T06:21:36.701Z,55.46
2024-02-02T06:22:36.650Z,55.46
2024-02-02T06:23:36.605Z,55.46
2024-02-02T06:24:36.636Z,55.46
2024-02-02T06:25:36.600Z,55.46
2024-02-02T06:26:36.571Z,55.36
2024-02-02T06:27:36.660Z,55.36
2024-02-02T06:28:36.573Z,55.36
2024-02-02T06:29:36.592Z,55.36
2024-02-02T06:30:36.575Z,55.36
2024-02-02T06:31:36.514Z,55.36
2024-02-02T06:32:36.606Z,55.36
2024-02-02T06:33:36.616Z,55.36
2024-02-02T06:34:36.522Z,55.36
2024-02-02T06:35:36.466Z,55.26
2024-02-02T06:36:36.534Z,55.26
2024-02-02T06:37:36.462Z,55.26
2024-02-02T06:38:36.459Z,55.26
2024-02-02T06:39:36.529Z,55.26
2024-02-02T06:40:36.417Z,55.26
2024-02-02T06:41:36.397Z,55.26
2024-02-02T06:42:36.466Z,55.26
2024-02-02T06:43:36.378Z,55.26
2024-02-02T06:44:36.402Z,55.26
2024-02-02T06:45:36.446Z,55.26
2024-02-02T06:46:36.350Z,55.26
2024-02-02T06:47:36.350Z,55.26
2024-02-02T06:48:36.503Z,55.26
2024-02-02T06:49:36.348Z,55.16
2024-02-02T06:50:36.299Z,55.16
2024-02-02T06:51:36.360Z,55.16
2024-02-02T06:52:36.275Z,55.16
2024-02-02T06:53:36.324Z,55.16
2024-02-02T06:54:36.302Z,55.16
2024-02-02T06:55:36.336Z,55.16
2024-02-02T06:56:36.231Z,55.16
2024-02-02T06:57:36.323Z,55.16
2024-02-02T06:58:36.222Z,55.16
2024-02-02T06:59:36.221Z,55.16
2024-02-02T07:00:36.295Z,55.16
2024-02-02T07:01:36.230Z,55.16
2024-02-02T07:02:36.172Z,55.16
2024-02-02T07:03:36.265Z,55.16
2024-02-02T07:04:36.252Z,55.16
2024-02-02T07:05:36.185Z,55.16
2024-02-02T07:06:36.381Z,55.06
2024-02-02T07:07:36.110Z,55.03
2024-02-02T07:08:36.106Z,55.06
2024-02-02T07:09:36.151Z,55.06
2024-02-02T07:10:36.076Z,55.03
2024-02-02T07:11:36.064Z,55.03
2024-02-02T07:12:36.108Z,55.06
2024-02-02T07:13:36.041Z,55.03
2024-02-02T07:14:36.057Z,55.03
2024-02-02T07:15:36.076Z,55.03
2024-02-02T07:16:36.007Z,55.03
2024-02-02T07:17:36.167Z,55.03
2024-02-02T07:18:36.328Z,55.03
2024-02-02T07:19:36.070Z,55.03
2024-02-02T07:20:35.961Z,55.03
2024-02-02T07:21:36.034Z,55.03
2024-02-02T07:22:35.999Z,55.03
2024-02-02T07:23:35.935Z,55.03
2024-02-02T07:24:35.929Z,54.93
2024-02-02T07:25:35.943Z,54.93
2024-02-02T07:26:35.893Z,54.93
2024-02-02T07:27:35.911Z,54.93
2024-02-02T07:28:35.925Z,55.03
2024-02-02T07:29:35.860Z,54.93
2024-02-02T07:30:36.083Z,54.93
2024-02-02T07:31:35.840Z,54.93
2024-02-02T07:32:35.900Z,54.93
2024-02-02T07:33:35.991Z,54.93
2024-02-02T07:34:36.022Z,54.93
2024-02-02T07:35:35.819Z,54.93
2024-02-02T07:36:35.918Z,54.93
2024-02-02T07:37:35.800Z,54.93
2024-02-02T07:38:35.768Z,54.93
2024-02-02T07:39:35.802Z,54.93
2024-02-02T07:40:35.735Z,54.93
2024-02-02T07:41:35.727Z,54.93
2024-02-02T07:42:47.585Z,54.93
2024-02-02T07:43:36.738Z,54.93
2024-02-02T07:44:35.736Z,54.93
2024-02-02T07:45:35.728Z,54.93
2024-02-02T07:46:35.755Z,54.93
2024-02-02T07:47:35.679Z,54.83
2024-02-02T07:48:35.850Z,54.83
2024-02-02T07:49:35.786Z,54.83
2024-02-02T07:50:35.631Z,54.83
2024-02-02T07:51:35.838Z,54.83
2024-02-02T07:52:35.602Z,54.83
2024-02-02T07:53:35.633Z,54.83
2024-02-02T07:54:35.717Z,54.83
2024-02-02T07:55:35.733Z,54.83
2024-02-02T07:56:35.583Z,54.83
2024-02-02T07:57:35.632Z,54.83
2024-02-02T07:58:35.540Z,54.83
2024-02-02T07:59:35.522Z,54.83
2024-02-02T08:00:35.637Z,54.83
2024-02-02T08:01:35.576Z,54.83
2024-02-02T08:02:35.493Z,54.83
2024-02-02T08:03:35.646Z,54.83
2024-02-02T08:04:35.497Z,54.83
2024-02-02T08:05:35.533Z,54.83
2024-02-02T08:06:35.652Z,54.83
2024-02-02T08:07:35.441Z,54.83
2024-02-02T08:08:35.504Z,54.83
2024-02-02T08:09:35.599Z,54.83
2024-02-02T08:10:35.429Z,54.83
2024-02-02T08:11:35.389Z,54.83
2024-02-02T08:12:35.504Z,54.83
2024-02-02T08:13:35.399Z,54.83
2024-02-02T08:14:35.357Z,54.83
2024-02-02T08:15:35.444Z,54.83
2024-02-02T08:16:35.363Z,54.83
2024-02-02T08:17:35.352Z,54.83
2024-02-02T08:18:35.549Z,54.83
2024-02-02T08:19:38.524Z,54.83
2024-02-02T08:20:35.293Z,54.83
2024-02-02T08:21:35.375Z,54.83
2024-02-02T08:22:35.269Z,54.83
2024-02-02T08:23:35.257Z,54.73
2024-02-02T08:24:35.385Z,54.83
2024-02-02T08:25:35.289Z,54.73
2024-02-02T08:26:35.234Z,54.73
2024-02-02T08:27:35.229Z,54.83
2024-02-02T08:28:42.259Z,54.73
2024-02-02T08:29:36.232Z,54.73
2024-02-02T08:30:35.192Z,54.73
2024-02-02T08:31:35.182Z,54.73
2024-02-02T08:32:35.213Z,54.73
2024-02-02T08:33:35.176Z,54.73
2024-02-02T08:34:35.253Z,54.73
2024-02-02T08:35:35.165Z,54.73
2024-02-02T08:36:35.167Z,54.73
2024-02-02T08:37:35.116Z,54.73
2024-02-02T08:38:35.102Z,54.73
2024-02-02T08:39:35.150Z,54.73
2024-02-02T08:40:35.095Z,54.73
2024-02-02T08:41:35.094Z,54.73
2024-02-02T08:42:35.147Z,54.73
2024-02-02T08:43:35.038Z,54.73
2024-02-02T08:44:35.028Z,54.73
2024-02-02T08:45:35.141Z,54.73
2024-02-02T08:46:35.005Z,54.73
2024-02-02T08:47:35.086Z,54.73
2024-02-02T08:48:35.059Z,54.73
2024-02-02T08:49:35.090Z,54.73
2024-02-02T08:50:34.992Z,54.73
2024-02-02T08:51:35.013Z,54.83
2024-02-02T08:52:34.964Z,54.83
2024-02-02T08:53:34.936Z,54.83
2024-02-02T08:54:35.445Z,54.86
2024-02-02T08:55:34.935Z,54.83
2024-02-02T08:56:34.900Z,54.83
2024-02-02T08:57:34.999Z,54.73
2024-02-02T08:58:34.880Z,54.83
2024-02-02T08:59:34.862Z,54.73
2024-02-02T09:00:34.992Z,54.73
2024-02-02T09:01:34.925Z,54.73
2024-02-02T09:02:34.838Z,54.73
2024-02-02T09:03:34.922Z,54.73
2024-02-02T09:04:34.927Z,54.83
2024-02-02T09:05:34.821Z,54.83
2024-02-02T09:06:34.895Z,54.83
2024-02-02T09:07:34.771Z,54.86
2024-02-02T09:08:34.996Z,54.83
2024-02-02T09:09:34.865Z,54.86
2024-02-02T09:10:34.809Z,54.93
2024-02-02T09:11:34.764Z,54.93
2024-02-02T09:12:34.911Z,54.86
2024-02-02T09:13:34.806Z,54.83
2024-02-02T09:14:34.737Z,54.86
2024-02-02T09:15:34.837Z,54.86
2024-02-02T09:16:34.674Z,54.83
2024-02-02T09:17:34.691Z,54.86
2024-02-02T09:18:34.845Z,54.86
2024-02-02T09:19:34.678Z,54.86
2024-02-02T09:20:34.656Z,54.86
2024-02-02T09:21:34.695Z,54.83
2024-02-02T09:22:34.605Z,54.86
2024-02-02T09:23:34.590Z,54.86
2024-02-02T09:24:34.745Z,54.83
2024-02-02T09:25:34.619Z,54.83
2024-02-02T09:26:34.628Z,54.83
2024-02-02T09:27:34.683Z,54.83
2024-02-02T09:28:34.561Z,54.83
2024-02-02T09:29:34.548Z,54.73
2024-02-02T09:30:34.571Z,54.73
2024-02-02T09:31:34.508Z,54.73
2024-02-02T09:32:34.510Z,54.93
2024-02-02T09:33:34.636Z,54.83
2024-02-02T09:34:34.569Z,54.73
2024-02-02T09:35:34.533Z,54.63
2024-02-02T09:36:34.494Z,54.63
2024-02-02T09:37:34.470Z,54.63
2024-02-02T09:38:34.423Z,54.63
2024-02-02T09:39:34.510Z,54.73
2024-02-02T09:40:34.404Z,54.73
2024-02-02T09:41:34.429Z,54.63
2024-02-02T09:42:34.480Z,54.73
2024-02-02T09:43:34.371Z,54.73
2024-02-02T09:44:34.363Z,54.63
2024-02-02T09:45:34.442Z,54.73
2024-02-02T09:46:34.374Z,54.63
2024-02-02T09:47:34.426Z,54.53
2024-02-02T09:48:34.653Z,54.53
2024-02-02T09:49:34.446Z,54.43
2024-02-02T09:50:34.321Z,54.43
2024-02-02T09:51:34.358Z,54.43
2024-02-02T09:52:35.687Z,54.43
2024-02-02T09:53:34.282Z,54.43
2024-02-02T09:54:34.323Z,54.43
2024-02-02T09:55:34.236Z,54.43
2024-02-02T09:56:34.230Z,54.43
2024-02-02T09:57:34.306Z,54.33
2024-02-02T09:58:34.212Z,54.43
2024-02-02T09:59:34.194Z,54.40
2024-02-02T10:00:34.358Z,54.40
2024-02-02T10:01:34.233Z,54.40
2024-02-02T10:02:34.204Z,54.40
2024-02-02T10:03:34.264Z,54.40
2024-02-02T10:04:34.163Z,54.30
2024-02-02T10:05:34.142Z,54.40
2024-02-02T10:06:34.244Z,54.30
2024-02-02T10:07:34.138Z,54.40
2024-02-02T10:08:34.096Z,54.40
2024-02-02T10:09:34.197Z,54.40
2024-02-02T10:10:34.082Z,54.50
2024-02-02T10:11:34.072Z,54.50
2024-02-02T10:12:34.144Z,54.40
2024-02-02T10:13:34.042Z,54.40
2024-02-02T10:14:34.047Z,54.30
2024-02-02T10:15:34.049Z,54.20
2024-02-02T10:16:34.047Z,54.20
2024-02-02T10:17:34.132Z,54.00
2024-02-02T10:18:34.176Z,54.10
2024-02-02T10:19:34.110Z,53.90
2024-02-02T10:20:34.007Z,53.70
2024-02-02T10:21:33.989Z,53.50
2024-02-02T10:22:33.974Z,53.70
2024-02-02T10:23:33.932Z,53.60
2024-02-02T10:24:33.953Z,53.40
2024-02-02T10:25:33.915Z,53.50
2024-02-02T10:26:33.942Z,53.30
2024-02-02T10:27:33.970Z,53.20
2024-02-02T10:28:33.886Z,53.20
2024-02-02T10:29:33.871Z,53.20
2024-02-02T10:30:33.940Z,53.20
2024-02-02T10:31:33.862Z,53.20
2024-02-02T10:32:33.855Z,53.20
2024-02-02T10:33:35.980Z,53.30
2024-02-02T10:34:33.903Z,53.30
2024-02-02T10:35:33.826Z,53.30
2024-02-02T10:36:33.851Z,53.40
2024-02-02T10:37:33.825Z,53.30
2024-02-02T10:38:33.773Z,53.40
2024-02-02T10:39:33.799Z,53.40
2024-02-02T10:40:33.752Z,53.40
2024-02-02T10:41:33.748Z,53.40
2024-02-02T10:42:33.792Z,53.40
2024-02-02T10:43:33.747Z,53.40
2024-02-02T10:44:33.712Z,53.40
2024-02-02T10:45:33.738Z,53.50
2024-02-02T10:46:33.685Z,53.50
2024-02-02T10:47:33.718Z,53.50
2024-02-02T10:48:33.814Z,53.50
2024-02-02T10:49:33.721Z,53.50
2024-02-02T10:50:33.646Z,53.50
2024-02-02T10:51:33.683Z,53.50
2024-02-02T10:52:33.646Z,53.50
2024-02-02T10:53:33.607Z,53.60
2024-02-02T10:54:33.658Z,53.60
2024-02-02T10:55:33.598Z,53.60
2024-02-02T10:56:33.578Z,53.60
2024-02-02T10:57:33.610Z,53.63
2024-02-02T10:58:33.562Z,53.60
2024-02-02T10:59:33.543Z,53.60
2024-02-02T11:00:33.668Z,53.60
2024-02-02T11:01:33.556Z,53.60
2024-02-02T11:02:33.544Z,53.70
2024-02-02T11:03:33.562Z,53.70
2024-02-02T11:04:33.518Z,53.70
2024-02-02T11:05:33.536Z,53.70
2024-02-02T11:06:33.569Z,53.70
2024-02-02T11:07:33.451Z,53.80
2024-02-02T11:08:33.444Z,53.80
2024-02-02T11:09:33.505Z,53.80
2024-02-02T11:10:33.445Z,53.70
2024-02-02T11:11:33.413Z,53.70
2024-02-02T11:12:33.528Z,53.70
2024-02-02T11:13:33.385Z,53.70
2024-02-02T11:14:33.371Z,53.70
2024-02-02T11:15:33.466Z,53.70
2024-02-02T11:16:33.380Z,53.70
2024-02-02T11:17:33.391Z,53.70
2024-02-02T11:18:33.502Z,53.70
2024-02-02T11:19:33.465Z,53.70
2024-02-02T11:20:33.337Z,53.70
2024-02-02T11:21:33.556Z,53.70
2024-02-02T11:22:33.286Z,53.70
2024-02-02T11:23:33.279Z,53.70
2024-02-02T11:24:33.285Z,53.70
2024-02-02T11:25:33.285Z,53.70
2024-02-02T11:26:33.271Z,53.70
2024-02-02T11:27:33.307Z,53.80
2024-02-02T11:28:33.220Z,53.80
2024-02-02T11:29:33.240Z,53.70
2024-02-02T11:30:33.235Z,53.80
2024-02-02T11:31:33.235Z,53.80
2024-02-02T11:32:33.202Z,53.80
2024-02-02T11:33:33.296Z,53.80
2024-02-02T11:34:33.425Z,53.80
2024-02-02T11:35:33.142Z,53.80
2024-02-02T11:36:33.194Z,53.80
2024-02-02T11:37:33.148Z,53.80
2024-02-02T11:38:33.140Z,53.90
2024-02-02T11:39:33.182Z,53.90
2024-02-02T11:40:33.093Z,53.90
2024-02-02T11:41:33.088Z,53.90
2024-02-02T11:42:33.250Z,53.90
2024-02-02T11:43:33.096Z,53.90
2024-02-02T11:44:33.042Z,53.90
2024-02-02T11:45:33.110Z,54.03
2024-02-02T11:46:33.026Z,53.90
2024-02-02T11:47:33.010Z,54.00
2024-02-02T11:48:33.200Z,54.03
2024-02-02T11:49:33.124Z,54.00
2024-02-02T11:50:32.995Z,54.00
2024-02-02T11:51:33.099Z,54.00
2024-02-02T11:52:32.967Z,54.00
2024-02-02T11:53:33.018Z,54.00
2024-02-02T11:54:33.010Z,54.00
2024-02-02T11:55:32.975Z,54.00
2024-02-02T11:56:32.922Z,54.10
2024-02-02T11:57:32.958Z,54.10
2024-02-02T11:58:32.896Z,54.10
2024-02-02T11:59:32.878Z,54.10
2024-02-02T12:00:32.890Z,54.10
2024-02-02T12:01:32.891Z,54.10
2024-02-02T12:02:32.886Z,54.10
2024-02-02T12:03:32.903Z,54.10
2024-02-02T12:04:32.887Z,54.10
2024-02-02T12:05:32.812Z,54.10
2024-02-02T12:06:32.922Z,54.10
2024-02-02T12:07:32.853Z,54.10
2024-02-02T12:08:32.779Z,54.10
2024-02-02T12:09:32.898Z,54.10
2024-02-02T12:10:32.767Z,54.10
2024-02-02T12:11:36.834Z,54.10
2024-02-02T12:12:33.756Z,54.20
2024-02-02T12:13:32.723Z,54.20
2024-02-02T12:14:32.730Z,54.20
2024-02-02T12:15:32.760Z,54.20
2024-02-02T12:16:32.730Z,54.30
2024-02-02T12:17:32.692Z,54.20
2024-02-02T12:18:32.834Z,54.20
2024-02-02T12:19:32.842Z,54.30
2024-02-02T12:20:32.926Z,54.20
2024-02-02T12:21:32.755Z,54.30
2024-02-02T12:22:32.644Z,54.30
2024-02-02T12:23:32.624Z,54.30
2024-02-02T12:24:32.751Z,54.43
2024-02-02T12:25:32.656Z,54.33
2024-02-02T12:26:32.612Z,54.43
2024-02-02T12:27:32.713Z,54.53
2024-02-02T12:28:32.570Z,54.43
2024-02-02T12:29:32.549Z,54.43
2024-02-02T12:30:32.626Z,54.43
2024-02-02T12:31:32.552Z,54.43
2024-02-02T12:32:32.518Z,54.43
2024-02-02T12:33:32.628Z,54.53
2024-02-02T12:34:32.577Z,54.53
2024-02-02T12:35:32.622Z,54.53
2024-02-02T12:36:32.520Z,54.53
2024-02-02T12:37:32.459Z,54.53
2024-02-02T12:38:32.456Z,54.53
2024-02-02T12:39:32.486Z,54.53
2024-02-02T12:40:32.439Z,54.63
2024-02-02T12:41:32.472Z,54.63
2024-02-02T12:42:32.425Z,54.63
2024-02-02T12:43:32.401Z,54.63
2024-02-02T12:44:32.389Z,54.63
2024-02-02T12:45:32.462Z,54.63
2024-02-02T12:46:32.366Z,54.63
2024-02-02T12:47:32.385Z,54.63
2024-02-02T12:48:32.550Z,54.73
2024-02-02T12:49:32.457Z,54.73
2024-02-02T12:50:32.320Z,54.73
2024-02-02T12:51:32.326Z,54.73
2024-02-02T12:52:32.335Z,54.73